Terminal Aerodrome Forecast
Issued by NWS

Current Version | Previous Version | Text Only | Print | Product List | Glossary On
Versions: 1 2 3 4 5 6 7 8 9 10 11 12 13
000
FTUS44 KLIX 230500
TAFMCB
TAF
KMCB 230525Z 2306/2406 11006KT P6SM VCSH OVC007
     FM230900 14008KT 3SM -SHRA OVC006
      TEMPO 2310/2313 VRB30KT 1 1/2SM TSRA BKN008 OVC015CB
     FM231500 18011KT 3SM -SHRA BKN015
     FM231800 22013KT P6SM SCT025
     FM232000 21011KT P6SM SCT110=

USA.gov is the U.S. government's official web portal to all federal, state and local government web resources and services.